sensor_id;sensor_type;location;lat;lon;timestamp;pressure;altitude;pressure_sealevel;temperature;humidity
31717;BME280;18301;51.076;17.046;2023-02-01T00:02:54;99639.41;;;3.26;88.04
31717;BME280;18301;51.076;17.046;2023-02-01T00:07:55;99600.38;;;3.25;88.86
31717;BME280;18301;51.076;17.046;2023-02-01T00:12:57;99599.78;;;3.20;89.41
31717;BME280;18301;51.076;17.046;2023-02-01T00:17:58;99592.16;;;3.60;87.71
31717;BME280;18301;51.076;17.046;2023-02-01T00:23:00;99619.88;;;3.73;86.66
31717;BME280;18301;51.076;17.046;2023-02-01T00:28:01;99608.94;;;3.62;87.42
31717;BME280;18301;51.076;17.046;2023-02-01T00:33:03;99613.09;;;3.52;88.66
31717;BME280;18301;51.076;17.046;2023-02-01T00:38:04;99613.22;;;3.80;87.55
31717;BME280;18301;51.076;17.046;2023-02-01T00:43:05;99618.44;;;3.52;89.07
31717;BME280;18301;51.076;17.046;2023-02-01T00:48:07;99617.56;;;3.67;88.94
31717;BME280;18301;51.076;17.046;2023-02-01T00:53:09;99602.84;;;3.60;89.03
31717;BME280;18301;51.076;17.046;2023-02-01T00:58:11;99616.00;;;3.63;89.29
31717;BME280;18301;51.076;17.046;2023-02-01T01:03:12;99616.13;;;3.91;88.60
31717;BME280;18301;51.076;17.046;2023-02-01T01:08:20;99621.97;;;3.98;88.08
31717;BME280;18301;51.076;17.046;2023-02-01T01:13:22;99641.75;;;3.48;88.50
31717;BME280;18301;51.076;17.046;2023-02-01T01:18:23;99637.66;;;3.88;87.98
31717;BME280;18301;51.076;17.046;2023-02-01T01:23:25;99639.84;;;3.66;89.10
31717;BME280;18301;51.076;17.046;2023-02-01T01:28:26;99626.75;;;4.07;87.48
31717;BME280;18301;51.076;17.046;2023-02-01T01:33:28;99664.97;;;4.08;86.81
31717;BME280;18301;51.076;17.046;2023-02-01T01:38:29;99630.63;;;3.72;88.88
31717;BME280;18301;51.076;17.046;2023-02-01T01:48:58;99645.63;;;3.42;88.42
31717;BME280;18301;51.076;17.046;2023-02-01T01:54:12;99641.22;;;3.10;92.50
31717;BME280;18301;51.076;17.046;2023-02-01T01:59:16;99651.72;;;3.13;92.59
31717;BME280;18301;51.076;17.046;2023-02-01T02:04:18;99650.88;;;3.28;92.10
31717;BME280;18301;51.076;17.046;2023-02-01T02:09:21;99655.00;;;3.18;92.81
31717;BME280;18301;51.076;17.046;2023-02-01T02:14:23;99650.63;;;3.33;92.81
31717;BME280;18301;51.076;17.046;2023-02-01T02:41:05;99638.00;;;3.82;91.07
31717;BME280;18301;51.076;17.046;2023-02-01T02:46:48;99640.22;;;3.90;89.53
31717;BME280;18301;51.076;17.046;2023-02-01T02:52:17;99635.34;;;3.82;90.03
31717;BME280;18301;51.076;17.046;2023-02-01T02:57:40;99633.88;;;3.77;87.81
31717;BME280;18301;51.076;17.046;2023-02-01T03:03:02;99638.53;;;4.03;88.49
31717;BME280;18301;51.076;17.046;2023-02-01T03:08:25;99648.78;;;4.11;86.66
31717;BME280;18301;51.076;17.046;2023-02-01T03:13:36;99651.75;;;3.90;85.15
31717;BME280;18301;51.076;17.046;2023-02-01T03:18:48;99654.47;;;4.05;83.97
31717;BME280;18301;51.076;17.046;2023-02-01T03:23:53;99651.53;;;4.09;84.65
31717;BME280;18301;51.076;17.046;2023-02-01T03:29:03;99654.63;;;4.18;84.82
31717;BME280;18301;51.076;17.046;2023-02-01T03:34:06;99652.59;;;4.07;84.69
31717;BME280;18301;51.076;17.046;2023-02-01T03:44:32;99657.22;;;4.33;82.96
31717;BME280;18301;51.076;17.046;2023-02-01T03:49:42;99645.94;;;4.14;84.32
31717;BME280;18301;51.076;17.046;2023-02-01T03:54:44;99641.75;;;3.94;84.47
31717;BME280;18301;51.076;17.046;2023-02-01T03:59:47;99631.25;;;4.07;83.98
31717;BME280;18301;51.076;17.046;2023-02-01T04:04:49;99631.34;;;4.20;83.07
31717;BME280;18301;51.076;17.046;2023-02-01T04:09:50;99632.16;;;4.06;83.04
31717;BME280;18301;51.076;17.046;2023-02-01T04:14:52;99634.47;;;4.12;82.06
31717;BME280;18301;51.076;17.046;2023-02-01T04:19:53;99632.41;;;4.17;81.07
31717;BME280;18301;51.076;17.046;2023-02-01T04:24:55;99627.78;;;4.05;81.51
31717;BME280;18301;51.076;17.046;2023-02-01T04:29:57;99623.25;;;4.21;81.66
31717;BME280;18301;51.076;17.046;2023-02-01T04:34:58;99633.03;;;4.06;82.30
31717;BME280;18301;51.076;17.046;2023-02-01T04:40:00;99626.69;;;4.23;80.99
31717;BME280;18301;51.076;17.046;2023-02-01T04:45:02;99626.88;;;4.20;80.66
31717;BME280;18301;51.076;17.046;2023-02-01T04:50:04;99621.94;;;4.28;80.23
31717;BME280;18301;51.076;17.046;2023-02-01T04:55:07;99625.91;;;4.07;80.82
31717;BME280;18301;51.076;17.046;2023-02-01T05:00:09;99628.19;;;4.13;80.45
31717;BME280;18301;51.076;17.046;2023-02-01T05:05:11;99625.56;;;4.42;80.34
31717;BME280;18301;51.076;17.046;2023-02-01T05:10:15;99613.00;;;4.44;80.09
31717;BME280;18301;51.076;17.046;2023-02-01T05:15:17;99607.09;;;4.53;79.32
31717;BME280;18301;51.076;17.046;2023-02-01T05:20:18;99594.84;;;4.49;78.60
31717;BME280;18301;51.076;17.046;2023-02-01T05:25:20;99599.44;;;4.61;78.41
31717;BME280;18301;51.076;17.046;2023-02-01T05:30:21;99591.06;;;4.53;77.61
31717;BME280;18301;51.076;17.046;2023-02-01T05:35:23;99595.25;;;4.71;77.39
31717;BME280;18301;51.076;17.046;2023-02-01T05:40:25;99596.97;;;4.72;76.67
31717;BME280;18301;51.076;17.046;2023-02-01T05:45:26;99575.88;;;4.82;75.41
31717;BME280;18301;51.076;17.046;2023-02-01T05:50:28;99573.03;;;4.56;75.91
31717;BME280;18301;51.076;17.046;2023-02-01T05:55:29;99568.72;;;4.68;76.18
31717;BME280;18301;51.076;17.046;2023-02-01T06:00:31;99561.06;;;4.76;75.92
31717;BME280;18301;51.076;17.046;2023-02-01T06:05:32;99556.78;;;4.45;77.27
31717;BME280;18301;51.076;17.046;2023-02-01T06:10:34;99558.31;;;4.64;76.62
31717;BME280;18301;51.076;17.046;2023-02-01T06:15:35;99550.19;;;4.79;76.16
31717;BME280;18301;51.076;17.046;2023-02-01T06:20:38;99550.75;;;4.99;75.48
31717;BME280;18301;51.076;17.046;2023-02-01T06:25:40;99542.75;;;4.84;76.20
31717;BME280;18301;51.076;17.046;2023-02-01T06:30:42;99554.34;;;4.98;74.85
31717;BME280;18301;51.076;17.046;2023-02-01T06:35:47;99569.47;;;4.84;75.49
31717;BME280;18301;51.076;17.046;2023-02-01T06:40:52;99565.03;;;4.98;75.81
31717;BME280;18301;51.076;17.046;2023-02-01T06:46:00;99562.56;;;5.09;75.23
31717;BME280;18301;51.076;17.046;2023-02-01T06:51:02;99567.19;;;4.93;75.98
31717;BME280;18301;51.076;17.046;2023-02-01T06:56:04;99566.28;;;5.06;75.24
31717;BME280;18301;51.076;17.046;2023-02-01T07:01:07;99556.47;;;4.93;75.11
31717;BME280;18301;51.076;17.046;2023-02-01T07:06:09;99579.66;;;5.06;74.10
31717;BME280;18301;51.076;17.046;2023-02-01T07:11:12;99571.28;;;5.25;73.37
31717;BME280;18301;51.076;17.046;2023-02-01T07:16:20;99575.53;;;5.01;74.29
31717;BME280;18301;51.076;17.046;2023-02-01T07:21:22;99578.97;;;5.17;73.97
31717;BME280;18301;51.076;17.046;2023-02-01T07:26:23;99583.81;;;5.25;74.22
31717;BME280;18301;51.076;17.046;2023-02-01T07:31:25;99585.44;;;5.13;74.15
31717;BME280;18301;51.076;17.046;2023-02-01T07:36:28;99578.25;;;4.87;75.75
31717;BME280;18301;51.076;17.046;2023-02-01T07:41:29;99587.22;;;5.00;74.85
31717;BME280;18301;51.076;17.046;2023-02-01T07:46:30;99590.72;;;5.15;75.43
31717;BME280;18301;51.076;17.046;2023-02-01T07:51:32;99584.34;;;5.03;75.99
31717;BME280;18301;51.076;17.046;2023-02-01T07:56:33;99582.34;;;5.34;75.41
31717;BME280;18301;51.076;17.046;2023-02-01T08:01:35;99582.91;;;5.39;75.23
31717;BME280;18301;51.076;17.046;2023-02-01T08:06:36;99574.19;;;5.49;74.67
31717;BME280;18301;51.076;17.046;2023-02-01T08:11:38;99575.47;;;5.29;75.29
31717;BME280;18301;51.076;17.046;2023-02-01T08:16:39;99558.00;;;5.51;75.10
31717;BME280;18301;51.076;17.046;2023-02-01T08:21:41;99562.16;;;5.42;75.64
31717;BME280;18301;51.076;17.046;2023-02-01T08:26:42;99566.81;;;5.53;75.57
31717;BME280;18301;51.076;17.046;2023-02-01T08:31:44;99563.56;;;5.48;76.02
31717;BME280;18301;51.076;17.046;2023-02-01T08:36:45;99554.00;;;5.71;75.48
31717;BME280;18301;51.076;17.046;2023-02-01T08:41:47;99549.25;;;5.49;75.70
31717;BME280;18301;51.076;17.046;2023-02-01T08:47:08;99553.00;;;5.59;75.64
31717;BME280;18301;51.076;17.046;2023-02-01T08:52:10;99558.97;;;5.50;76.34
31717;BME280;18301;51.076;17.046;2023-02-01T08:57:16;99547.00;;;5.28;76.34
31717;BME280;18301;51.076;17.046;2023-02-01T09:02:18;99553.63;;;5.90;74.27
31717;BME280;18301;51.076;17.046;2023-02-01T09:07:20;99542.56;;;5.42;78.02
31717;BME280;18301;51.076;17.046;2023-02-01T09:12:22;99549.09;;;5.38;78.63
31717;BME280;18301;51.076;17.046;2023-02-01T09:17:24;99536.84;;;5.21;78.98
31717;BME280;18301;51.076;17.046;2023-02-01T09:22:26;99538.47;;;5.23;78.90
31717;BME280;18301;51.076;17.046;2023-02-01T09:27:27;99546.47;;;5.63;77.43
31717;BME280;18301;51.076;17.046;2023-02-01T09:32:29;99538.53;;;5.49;78.13
31717;BME280;18301;51.076;17.046;2023-02-01T09:37:30;99543.47;;;5.55;77.39
31717;BME280;18301;51.076;17.046;2023-02-01T09:42:58;99526.38;;;5.58;77.83
31717;BME280;18301;51.076;17.046;2023-02-01T09:48:17;99523.31;;;5.76;77.35
31717;BME280;18301;51.076;17.046;2023-02-01T09:54:01;99512.25;;;5.68;77.20
31717;BME280;18301;51.076;17.046;2023-02-01T09:59:13;99512.69;;;5.88;76.26
31717;BME280;18301;51.076;17.046;2023-02-01T10:04:20;99509.28;;;5.86;76.97
31717;BME280;18301;51.076;17.046;2023-02-01T10:09:58;99500.69;;;5.81;77.31
31717;BME280;18301;51.076;17.046;2023-02-01T10:20:26;99499.25;;;6.15;76.51
31717;BME280;18301;51.076;17.046;2023-02-01T10:30:43;99488.63;;;6.39;74.66
31717;BME280;18301;51.076;17.046;2023-02-01T10:35:46;99479.31;;;6.44;74.67
31717;BME280;18301;51.076;17.046;2023-02-01T10:40:53;99462.16;;;6.21;74.22
31717;BME280;18301;51.076;17.046;2023-02-01T10:45:56;99460.63;;;6.43;74.40
31717;BME280;18301;51.076;17.046;2023-02-01T10:51:00;99463.41;;;6.54;74.24
31717;BME280;18301;51.076;17.046;2023-02-01T10:56:11;99460.59;;;6.68;72.90
31717;BME280;18301;51.076;17.046;2023-02-01T11:01:27;99451.59;;;6.69;73.24
31717;BME280;18301;51.076;17.046;2023-02-01T11:06:32;99446.84;;;6.73;73.45
31717;BME280;18301;51.076;17.046;2023-02-01T11:12:01;99435.31;;;6.60;74.48
31717;BME280;18301;51.076;17.046;2023-02-01T11:22:16;99436.47;;;6.32;76.52
31717;BME280;18301;51.076;17.046;2023-02-01T11:27:21;99416.97;;;6.17;76.97
31717;BME280;18301;51.076;17.046;2023-02-01T11:32:28;99421.38;;;5.80;77.79
31717;BME280;18301;51.076;17.046;2023-02-01T11:37:38;99427.47;;;6.20;77.20
31717;BME280;18301;51.076;17.046;2023-02-01T11:42:54;99415.47;;;5.74;80.64
31717;BME280;18301;51.076;17.046;2023-02-01T11:47:57;99401.16;;;6.01;78.95
31717;BME280;18301;51.076;17.046;2023-02-01T12:09:12;99385.47;;;5.44;82.20
31717;BME280;18301;51.076;17.046;2023-02-01T12:14:27;99377.78;;;5.77;80.98
31717;BME280;18301;51.076;17.046;2023-02-01T12:19:59;99386.22;;;5.46;81.56
31717;BME280;18301;51.076;17.046;2023-02-01T12:30:42;99393.00;;;5.64;80.45
31717;BME280;18301;51.076;17.046;2023-02-01T12:51:40;99375.28;;;5.23;83.89
31717;BME280;18301;51.076;17.046;2023-02-01T12:57:00;99389.94;;;5.18;84.63
31717;BME280;18301;51.076;17.046;2023-02-01T13:02:22;99411.25;;;5.32;84.65
31717;BME280;18301;51.076;17.046;2023-02-01T13:07:30;99411.81;;;5.50;83.62
31717;BME280;18301;51.076;17.046;2023-02-01T13:12:40;99415.13;;;5.66;83.26
31717;BME280;18301;51.076;17.046;2023-02-01T13:17:44;99422.13;;;6.07;82.21
31717;BME280;18301;51.076;17.046;2023-02-01T13:22:54;99412.69;;;5.89;82.68
31717;BME280;18301;51.076;17.046;2023-02-01T13:28:06;99421.56;;;6.15;81.02
31717;BME280;18301;51.076;17.046;2023-02-01T13:39:02;99425.31;;;6.38;79.60
31717;BME280;18301;51.076;17.046;2023-02-01T13:44:13;99410.38;;;6.34;79.99
31717;BME280;18301;51.076;17.046;2023-02-01T13:49:20;99420.19;;;6.22;79.79
31717;BME280;18301;51.076;17.046;2023-02-01T13:54:31;99443.97;;;6.27;80.14
31717;BME280;18301;51.076;17.046;2023-02-01T13:59:49;99445.91;;;5.99;81.92
31717;BME280;18301;51.076;17.046;2023-02-01T14:04:52;99436.91;;;6.00;84.15
31717;BME280;18301;51.076;17.046;2023-02-01T14:09:54;99437.66;;;6.15;82.78
31717;BME280;18301;51.076;17.046;2023-02-01T14:15:17;99411.63;;;6.04;82.76
31717;BME280;18301;51.076;17.046;2023-02-01T14:20:39;99444.91;;;5.74;83.12
31717;BME280;18301;51.076;17.046;2023-02-01T14:25:42;99441.19;;;6.15;81.93
31717;BME280;18301;51.076;17.046;2023-02-01T14:30:44;99446.72;;;5.48;85.26
31717;BME280;18301;51.076;17.046;2023-02-01T14:36:04;99447.03;;;5.57;84.88
31717;BME280;18301;51.076;17.046;2023-02-01T14:41:23;99445.97;;;5.85;84.15
31717;BME280;18301;51.076;17.046;2023-02-01T14:52:13;99436.03;;;5.61;83.85
31717;BME280;18301;51.076;17.046;2023-02-01T14:57:18;99444.91;;;5.74;82.92
31717;BME280;18301;51.076;17.046;2023-02-01T15:02:25;99452.50;;;5.55;83.57
31717;BME280;18301;51.076;17.046;2023-02-01T15:07:28;99449.78;;;5.95;80.85
31717;BME280;18301;51.076;17.046;2023-02-01T15:12:30;99448.00;;;5.68;80.72
31717;BME280;18301;51.076;17.046;2023-02-01T15:17:34;99468.81;;;5.38;81.86
31717;BME280;18301;51.076;17.046;2023-02-01T15:22:35;99459.13;;;5.62;80.81
31717;BME280;18301;51.076;17.046;2023-02-01T15:27:37;99466.16;;;5.38;81.61
31717;BME280;18301;51.076;17.046;2023-02-01T15:32:39;99464.44;;;5.37;82.01
31717;BME280;18301;51.076;17.046;2023-02-01T15:37:41;99467.22;;;5.48;81.45
31717;BME280;18301;51.076;17.046;2023-02-01T15:47:55;99467.66;;;5.42;81.96
31717;BME280;18301;51.076;17.046;2023-02-01T15:52:58;99472.72;;;5.59;80.40
31717;BME280;18301;51.076;17.046;2023-02-01T15:57:59;99470.47;;;5.66;80.46
31717;BME280;18301;51.076;17.046;2023-02-01T16:03:05;99477.53;;;5.54;80.40
31717;BME280;18301;51.076;17.046;2023-02-01T16:08:13;99473.34;;;5.50;80.86
31717;BME280;18301;51.076;17.046;2023-02-01T16:13:18;99478.50;;;5.53;80.79
31717;BME280;18301;51.076;17.046;2023-02-01T16:18:21;99466.47;;;5.06;82.04
31717;BME280;18301;51.076;17.046;2023-02-01T16:23:22;99479.09;;;5.04;82.40
31717;BME280;18301;51.076;17.046;2023-02-01T16:28:24;99484.44;;;5.04;82.63
31717;BME280;18301;51.076;17.046;2023-02-01T16:33:26;99489.66;;;4.93;83.43
31717;BME280;18301;51.076;17.046;2023-02-01T16:38:28;99483.78;;;5.00;83.37
31717;BME280;18301;51.076;17.046;2023-02-01T16:43:29;99486.19;;;5.05;83.31
31717;BME280;18301;51.076;17.046;2023-02-01T16:48:34;99472.44;;;4.97;83.50
31717;BME280;18301;51.076;17.046;2023-02-01T16:53:37;99475.88;;;4.99;83.47
31717;BME280;18301;51.076;17.046;2023-02-01T16:58:54;99464.06;;;4.89;83.60
31717;BME280;18301;51.076;17.046;2023-02-01T17:03:55;99454.91;;;4.93;83.73
31717;BME280;18301;51.076;17.046;2023-02-01T17:08:58;99445.31;;;5.03;83.67
31717;BME280;18301;51.076;17.046;2023-02-01T17:14:11;99439.91;;;4.90;83.44
31717;BME280;18301;51.076;17.046;2023-02-01T17:19:18;99429.50;;;4.85;84.61
31717;BME280;18301;51.076;17.046;2023-02-01T17:24:23;99427.75;;;4.72;83.77
31717;BME280;18301;51.076;17.046;2023-02-01T17:29:27;99413.88;;;4.79;83.82
31717;BME280;18301;51.076;17.046;2023-02-01T17:34:30;99406.41;;;4.84;83.21
31717;BME280;18301;51.076;17.046;2023-02-01T17:39:32;99396.69;;;4.83;83.03
31717;BME280;18301;51.076;17.046;2023-02-01T17:44:56;99382.16;;;4.88;82.61
31717;BME280;18301;51.076;17.046;2023-02-01T17:49:58;99394.63;;;4.74;82.61
31717;BME280;18301;51.076;17.046;2023-02-01T17:55:00;99386.25;;;4.93;82.08
31717;BME280;18301;51.076;17.046;2023-02-01T18:00:02;99371.72;;;5.10;81.52
31717;BME280;18301;51.076;17.046;2023-02-01T18:05:18;99379.16;;;4.92;81.37
31717;BME280;18301;51.076;17.046;2023-02-01T18:10:20;99372.56;;;5.11;78.73
31717;BME280;18301;51.076;17.046;2023-02-01T18:15:24;99360.81;;;5.13;78.48
31717;BME280;18301;51.076;17.046;2023-02-01T18:20:26;99342.44;;;5.34;77.74
31717;BME280;18301;51.076;17.046;2023-02-01T18:25:30;99325.22;;;5.51;77.21
31717;BME280;18301;51.076;17.046;2023-02-01T18:30:37;99325.13;;;5.40;77.02
31717;BME280;18301;51.076;17.046;2023-02-01T18:35:39;99325.97;;;5.53;76.94
31717;BME280;18301;51.076;17.046;2023-02-01T18:40:52;99301.56;;;5.45;78.14
31717;BME280;18301;51.076;17.046;2023-02-01T18:45:53;99296.63;;;5.39;78.47
31717;BME280;18301;51.076;17.046;2023-02-01T18:50:55;99276.84;;;5.28;79.75
31717;BME280;18301;51.076;17.046;2023-02-01T18:55:58;99276.44;;;5.22;80.18
31717;BME280;18301;51.076;17.046;2023-02-01T19:01:04;99257.38;;;5.14;80.08
31717;BME280;18301;51.076;17.046;2023-02-01T19:06:07;99251.09;;;5.27;80.00
31717;BME280;18301;51.076;17.046;2023-02-01T19:11:09;99250.31;;;5.38;79.26
31717;BME280;18301;51.076;17.046;2023-02-01T19:16:12;99242.94;;;5.29;79.35
31717;BME280;18301;51.076;17.046;2023-02-01T19:21:13;99255.97;;;5.46;79.07
31717;BME280;18301;51.076;17.046;2023-02-01T19:26:16;99242.41;;;5.37;78.79
31717;BME280;18301;51.076;17.046;2023-02-01T19:31:18;99234.41;;;5.24;79.21
31717;BME280;18301;51.076;17.046;2023-02-01T19:36:19;99217.72;;;5.20;79.17
31717;BME280;18301;51.076;17.046;2023-02-01T19:41:21;99217.06;;;5.04;79.02
31717;BME280;18301;51.076;17.046;2023-02-01T19:46:23;99207.25;;;5.54;77.54
31717;BME280;18301;51.076;17.046;2023-02-01T19:51:24;99217.22;;;5.52;76.09
31717;BME280;18301;51.076;17.046;2023-02-01T19:56:26;99196.06;;;5.49;76.31
31717;BME280;18301;51.076;17.046;2023-02-01T20:01:27;99212.09;;;5.49;76.78
31717;BME280;18301;51.076;17.046;2023-02-01T20:06:30;99206.75;;;5.49;78.13
31717;BME280;18301;51.076;17.046;2023-02-01T20:11:31;99212.78;;;4.89;81.11
31717;BME280;18301;51.076;17.046;2023-02-01T20:16:33;99245.72;;;5.27;80.12
31717;BME280;18301;51.076;17.046;2023-02-01T20:21:36;99229.06;;;5.11;81.89
31717;BME280;18301;51.076;17.046;2023-02-01T20:26:38;99230.00;;;4.32;86.31
31717;BME280;18301;51.076;17.046;2023-02-01T20:31:40;99275.31;;;4.33;85.43
31717;BME280;18301;51.076;17.046;2023-02-01T20:36:42;99254.66;;;3.96;87.42
31717;BME280;18301;51.076;17.046;2023-02-01T20:41:43;99273.34;;;3.81;88.46
31717;BME280;18301;51.076;17.046;2023-02-01T20:46:45;99264.94;;;4.02;86.77
31717;BME280;18301;51.076;17.046;2023-02-01T20:51:47;99284.63;;;3.43;90.44
31717;BME280;18301;51.076;17.046;2023-02-01T20:56:49;99280.25;;;3.57;88.99
31717;BME280;18301;51.076;17.046;2023-02-01T21:01:50;99295.03;;;3.34;89.63
31717;BME280;18301;51.076;17.046;2023-02-01T21:06:54;99309.69;;;2.82;93.70
31717;BME280;18301;51.076;17.046;2023-02-01T21:11:55;99304.75;;;3.20;92.02
31717;BME280;18301;51.076;17.046;2023-02-01T21:16:57;99323.81;;;2.98;93.43
31717;BME280;18301;51.076;17.046;2023-02-01T21:21:58;99325.13;;;3.64;89.43
31717;BME280;18301;51.076;17.046;2023-02-01T21:27:00;99338.16;;;3.40;90.91
31717;BME280;18301;51.076;17.046;2023-02-01T21:32:02;99336.06;;;3.74;88.74
31717;BME280;18301;51.076;17.046;2023-02-01T21:37:03;99341.22;;;3.49;90.64
31717;BME280;18301;51.076;17.046;2023-02-01T21:42:05;99345.44;;;3.67;90.91
31717;BME280;18301;51.076;17.046;2023-02-01T21:47:19;99353.03;;;3.73;89.60
31717;BME280;18301;51.076;17.046;2023-02-01T21:52:26;99361.78;;;3.89;89.19
31717;BME280;18301;51.076;17.046;2023-02-01T21:57:28;99362.75;;;3.74;90.15
31717;BME280;18301;51.076;17.046;2023-02-01T22:02:29;99368.66;;;3.65;91.13
31717;BME280;18301;51.076;17.046;2023-02-01T22:07:33;99354.56;;;3.91;89.66
31717;BME280;18301;51.076;17.046;2023-02-01T22:12:35;99370.38;;;3.80;90.41
31717;BME280;18301;51.076;17.046;2023-02-01T22:17:37;99372.00;;;3.83;91.62
31717;BME280;18301;51.076;17.046;2023-02-01T22:22:38;99373.97;;;3.93;90.96
31717;BME280;18301;51.076;17.046;2023-02-01T22:27:40;99389.22;;;4.06;90.41
31717;BME280;18301;51.076;17.046;2023-02-01T22:33:02;99388.66;;;4.15;90.23
31717;BME280;18301;51.076;17.046;2023-02-01T22:38:03;99383.31;;;4.15;90.23
31717;BME280;18301;51.076;17.046;2023-02-01T22:43:04;99400.13;;;3.88;92.20
31717;BME280;18301;51.076;17.046;2023-02-01T22:48:06;99412.13;;;4.10;91.67
31717;BME280;18301;51.076;17.046;2023-02-01T22:53:08;99396.44;;;4.32;89.88
31717;BME280;18301;51.076;17.046;2023-02-01T22:58:09;99406.00;;;4.22;90.57
31717;BME280;18301;51.076;17.046;2023-02-01T23:03:10;99403.22;;;4.24;89.92
31717;BME280;18301;51.076;17.046;2023-02-01T23:08:12;99397.94;;;4.51;89.70
31717;BME280;18301;51.076;17.046;2023-02-01T23:13:13;99423.69;;;4.52;88.74
31717;BME280;18301;51.076;17.046;2023-02-01T23:18:15;99413.75;;;4.54;88.39
31717;BME280;18301;51.076;17.046;2023-02-01T23:23:16;99421.22;;;4.49;88.47
31717;BME280;18301;51.076;17.046;2023-02-01T23:28:18;99424.63;;;4.65;87.30
31717;BME280;18301;51.076;17.046;2023-02-01T23:33:24;99418.25;;;4.53;88.07
31717;BME280;18301;51.076;17.046;2023-02-01T23:38:26;99411.69;;;4.30;88.43
31717;BME280;18301;51.076;17.046;2023-02-01T23:43:28;99406.16;;;4.48;88.95
31717;BME280;18301;51.076;17.046;2023-02-01T23:48:48;99404.09;;;4.24;88.45
31717;BME280;18301;51.076;17.046;2023-02-01T23:53:52;99398.91;;;4.50;87.51
31717;BME280;18301;51.076;17.046;2023-02-01T23:58:54;99394.59;;;4.47;88.12
